Aérodrome :
LOGIN :

S'inscrire | Disclaimer

   EN    FR    IT 

 










Légende :    VFR   VFR Marginal   IFR   IFR Intensif   IFR Très Intensif
Visi : 
Plafond : 
>= 8 km
>= 3000ft
5 à 8 km
1000 à 3000 ft
1500m à 5 km
500 à 1000 ft
800 à 1500m
200 à 500 ft
< 800m
< 200 ft
Symboles :   Orages  Brouillard  Fortes neiges  Fortes précipitations  Vent > 20 kt
SIGMETs :   Divers  Orages  Givrage  Turbulence  Onde Orograph.  Cendres Volcan.






- Altitude de l'aérodrome : 512 ft
- Code IATA : URO


LFOP - Rouen Vallée de Seine

DERNIER METAR :
  • 150400Z AUTO 03008KT CAVOK 00/M01 Q1030

METARs EXPIRÉS :
  • 150330Z AUTO 03008KT CAVOK 01/M01 Q1030
  • 150300Z AUTO 04007KT CAVOK 01/M02 Q1029
  • 150230Z AUTO 04008KT CAVOK 00/M02 Q1029
  • 150200Z AUTO 04007KT CAVOK 01/M02 Q1029
  • 150130Z AUTO 04007KT CAVOK 01/M02 Q1029

TAF TAF LFOP
Valide du 14 à 18h jusqu'au 15 à 18h UTC


141700Z 1418/1518 02012KT CAVOK
TEMPO 1511/1514 BKN040TCU
TEMPO 1514/1517 02015G30KT 3000 SHRAGS BKN025CB
ATIS : +33 2 35 80 80 34
Météo : +33 2 32 86 52 80



MET'MAP, la Météo Aéronautique d'un coup d'oeil ! - Copyright ORBIFLY Décembre 2007 - Disclaimer

ORBIFLY MET'MAP TEAM :

Programmation & Développement : Alexandra Zaïnal
Sur une idée originale de : Baudouin d'Aumeries
Assistance à la programmation : Marc-Olivier Méhu
Soutien technique & logistique : Manuel Goepfert

Contact : metmap@orbifly.com




SOURCES & CREDITS :

   NOAA